createdAt,value
2022-10-25T00:01:46.903Z,1.25
2022-10-25T00:04:15.164Z,1.45
2022-10-25T00:06:42.521Z,2.03
2022-10-25T00:09:09.449Z,1.38
2022-10-25T00:11:39.321Z,1.10
2022-10-25T00:14:07.585Z,1.55
2022-10-25T00:16:38.473Z,1.25
2022-10-25T00:19:05.898Z,1.15
2022-10-25T00:21:32.612Z,1.13
2022-10-25T00:23:59.433Z,1.67
2022-10-25T00:26:26.181Z,1.33
2022-10-25T00:28:55.206Z,1.30
2022-10-25T00:31:23.640Z,1.40
2022-10-25T00:33:50.783Z,1.23
2022-10-25T00:36:23.796Z,1.15
2022-10-25T00:41:22.791Z,1.23
2022-10-25T00:43:56.208Z,1.35
2022-10-25T00:46:31.744Z,1.77
2022-10-25T00:49:17.876Z,1.58
2022-10-25T00:51:56.382Z,1.40
2022-10-25T00:54:41.820Z,1.20
2022-10-25T00:57:33.578Z,1.33
2022-10-25T01:00:02.152Z,1.10
2022-10-25T01:02:29.048Z,1.15
2022-10-25T01:04:56.055Z,1.40
2022-10-25T01:07:22.782Z,1.35
2022-10-25T01:09:51.449Z,1.15
2022-10-25T01:12:20.286Z,1.27
2022-10-25T01:14:50.064Z,1.13
2022-10-25T01:18:07.178Z,0.88
2022-10-25T01:21:05.596Z,1.20
2022-10-25T01:24:07.914Z,1.30
2022-10-25T01:27:00.865Z,1.10
2022-10-25T01:29:45.396Z,1.02
2022-10-25T01:32:44.181Z,1.10
2022-10-25T01:35:37.134Z,1.20
2022-10-25T01:38:51.861Z,1.10
2022-10-25T01:41:48.712Z,1.15
2022-10-25T01:45:13.717Z,1.27
2022-10-25T01:48:04.108Z,1.05
2022-10-25T01:50:36.338Z,1.02
2022-10-25T01:53:03.148Z,1.10
2022-10-25T01:55:51.645Z,1.00
2022-10-25T01:58:46.829Z,1.15
2022-10-25T02:01:59.943Z,1.13
2022-10-25T02:05:02.526Z,1.73
2022-10-25T02:07:35.828Z,1.15
2022-10-25T02:10:29.355Z,1.17
2022-10-25T02:13:04.702Z,1.10
2022-10-25T02:15:40.861Z,1.02
2022-10-25T02:18:14.784Z,0.80
2022-10-25T02:20:47.007Z,1.33
2022-10-25T02:23:15.449Z,1.25
2022-10-25T02:25:43.577Z,1.10
2022-10-25T02:28:13.208Z,1.60
2022-10-25T02:30:42.980Z,1.33
2022-10-25T02:33:11.265Z,0.60
2022-10-25T02:35:38.149Z,0.70
2022-10-25T02:38:05.117Z,0.73
2022-10-25T02:40:32.136Z,1.38
2022-10-25T02:42:58.933Z,1.20
2022-10-25T02:45:25.722Z,0.90
2022-10-25T02:47:52.521Z,0.98
2022-10-25T02:50:19.425Z,1.27
2022-10-25T02:52:46.682Z,1.20
2022-10-25T02:55:13.649Z,1.17
2022-10-25T02:57:40.383Z,1.10
2022-10-25T03:00:08.752Z,1.10
2022-10-25T03:02:35.625Z,1.67
2022-10-25T03:05:02.416Z,0.88
2022-10-25T03:07:29.174Z,1.40
2022-10-25T03:09:55.913Z,1.00
2022-10-25T03:12:22.653Z,1.30
2022-10-25T03:14:49.447Z,1.80
2022-10-25T03:17:16.249Z,1.20
2022-10-25T03:19:42.957Z,0.80
2022-10-25T03:22:09.782Z,1.33
2022-10-25T03:24:36.528Z,1.20
2022-10-25T03:27:03.369Z,1.75
2022-10-25T03:29:30.085Z,1.27
2022-10-25T03:31:56.941Z,1.52
2022-10-25T03:34:23.708Z,1.52
2022-10-25T03:36:50.496Z,1.45
2022-10-25T03:39:17.301Z,1.65
2022-10-25T03:41:44.028Z,1.65
2022-10-25T03:44:10.782Z,1.70
2022-10-25T03:46:37.496Z,1.65
2022-10-25T03:49:04.278Z,1.30
2022-10-25T03:51:31.034Z,1.85
2022-10-25T03:53:57.725Z,2.45
2022-10-25T03:56:24.452Z,1.10
2022-10-25T03:58:51.424Z,1.60
2022-10-25T04:01:18.261Z,1.85
2022-10-25T04:03:45.426Z,1.90
2022-10-25T04:06:12.214Z,1.65
2022-10-25T04:08:39.266Z,2.03
2022-10-25T04:11:06.016Z,2.30
2022-10-25T04:13:32.847Z,1.95
2022-10-25T04:15:59.610Z,1.73
2022-10-25T04:18:26.325Z,1.88
2022-10-25T04:20:53.040Z,2.60
2022-10-25T04:23:19.773Z,2.38
2022-10-25T04:25:46.544Z,1.80
2022-10-25T04:28:13.304Z,2.17
2022-10-25T04:30:40.125Z,2.65
2022-10-25T04:33:07.589Z,2.20
2022-10-25T04:35:34.401Z,2.28
2022-10-25T04:38:01.128Z,4.22
2022-10-25T04:40:27.876Z,2.90
2022-10-25T04:42:54.644Z,2.45
2022-10-25T04:45:21.350Z,2.40
2022-10-25T04:47:48.165Z,2.72
2022-10-25T04:50:14.978Z,2.17
2022-10-25T04:52:43.901Z,2.75
2022-10-25T04:55:10.788Z,2.10
2022-10-25T04:57:37.577Z,2.28
2022-10-25T05:00:04.876Z,2.70
2022-10-25T05:02:31.662Z,2.90
2022-10-25T05:04:58.405Z,3.38
2022-10-25T05:07:26.266Z,3.40
2022-10-25T05:09:52.962Z,2.72
2022-10-25T05:12:19.803Z,4.28
2022-10-25T05:14:46.582Z,3.47
2022-10-25T05:17:13.373Z,3.42
2022-10-25T05:19:40.113Z,2.47
2022-10-25T05:22:06.874Z,1.75
2022-10-25T05:24:34.085Z,2.00
2022-10-25T05:27:00.816Z,2.15
2022-10-25T05:29:27.592Z,2.33
2022-10-25T05:31:54.429Z,2.30
2022-10-25T05:34:21.224Z,2.35
2022-10-25T05:36:47.931Z,2.35
2022-10-25T05:39:14.897Z,2.15
2022-10-25T05:41:41.732Z,3.42
2022-10-25T05:44:08.654Z,2.22
2022-10-25T05:46:35.388Z,2.28
2022-10-25T05:49:02.641Z,2.25
2022-10-25T05:51:36.322Z,1.95
2022-10-25T05:54:10.384Z,3.00
2022-10-25T05:56:37.799Z,1.67
2022-10-25T05:59:10.393Z,2.35
2022-10-25T06:01:47.166Z,1.75
2022-10-25T06:04:15.896Z,2.75
2022-10-25T06:06:45.289Z,3.33
2022-10-25T06:09:13.188Z,3.47
2022-10-25T06:11:40.388Z,2.95
2022-10-25T06:14:07.527Z,3.50
2022-10-25T06:16:34.473Z,3.40
2022-10-25T06:19:01.367Z,3.53
2022-10-25T06:21:29.649Z,4.82
2022-10-25T06:23:58.527Z,3.58
2022-10-25T06:26:29.414Z,2.88
2022-10-25T06:28:59.658Z,2.92
2022-10-25T06:31:27.386Z,2.80
2022-10-25T06:33:54.123Z,3.30
2022-10-25T06:36:23.445Z,4.18
2022-10-25T06:38:53.122Z,3.27
2022-10-25T06:41:24.107Z,4.97
2022-10-25T06:43:51.962Z,2.03
2022-10-25T06:46:24.329Z,1.92
2022-10-25T06:48:53.081Z,3.35
2022-10-25T06:51:21.702Z,2.50
2022-10-25T06:53:54.994Z,3.22
2022-10-25T06:56:22.196Z,11.25
2022-10-25T06:58:49.182Z,4.53
2022-10-25T07:01:18.686Z,2.55
2022-10-25T07:03:46.314Z,2.55
2022-10-25T07:06:18.977Z,2.35
2022-10-25T07:08:47.369Z,3.97
2022-10-25T07:11:17.719Z,4.05
2022-10-25T07:13:45.168Z,3.95
2022-10-25T07:16:16.073Z,2.88
2022-10-25T07:18:44.364Z,2.75
2022-10-25T07:21:14.814Z,3.33
2022-10-25T07:23:42.816Z,2.72
2022-10-25T07:26:23.865Z,2.40
2022-10-25T07:28:53.016Z,3.42
2022-10-25T07:31:32.958Z,3.33
2022-10-25T07:34:02.882Z,4.25
2022-10-25T07:36:30.418Z,4.60
2022-10-25T07:38:57.729Z,7.78
2022-10-25T07:41:25.650Z,9.80
2022-10-25T07:43:52.519Z,30.67
2022-10-25T07:46:19.292Z,37.97
2022-10-25T07:48:46.181Z,13.45
2022-10-25T07:51:16.446Z,9.90
2022-10-25T07:53:43.351Z,5.22
2022-10-25T07:56:19.029Z,6.03
2022-10-25T07:58:49.323Z,6.07
2022-10-25T08:01:22.942Z,4.75
2022-10-25T08:03:51.309Z,6.13
2022-10-25T08:06:18.779Z,7.57
2022-10-25T08:08:45.687Z,5.30
2022-10-25T08:11:12.526Z,3.88
2022-10-25T08:13:39.942Z,5.95
2022-10-25T08:16:08.053Z,5.13
2022-10-25T08:18:35.469Z,4.07
2022-10-25T08:21:03.822Z,3.33
2022-10-25T08:23:32.720Z,3.75
2022-10-25T08:26:02.748Z,3.22
2022-10-25T08:28:31.573Z,4.20
2022-10-25T08:31:01.212Z,3.22
2022-10-25T08:33:28.903Z,4.07
2022-10-25T08:35:55.668Z,7.68
2022-10-25T08:38:22.519Z,5.30
2022-10-25T08:41:14.990Z,3.10
2022-10-25T08:44:35.164Z,5.88
2022-10-25T08:47:11.817Z,4.47
2022-10-25T08:49:45.115Z,3.50
2022-10-25T08:52:23.786Z,3.55
2022-10-25T08:54:50.848Z,2.83
2022-10-25T08:57:26.910Z,3.33
2022-10-25T09:00:00.688Z,2.17
2022-10-25T09:02:56.836Z,3.17
2022-10-25T09:06:25.151Z,2.42
2022-10-25T09:09:05.998Z,2.80
2022-10-25T09:12:13.161Z,2.50
2022-10-25T09:14:48.179Z,2.40
2022-10-25T09:17:31.677Z,2.50
2022-10-25T09:20:20.892Z,2.97
2022-10-25T09:22:51.802Z,1.35
2022-10-25T09:25:26.034Z,2.15
2022-10-25T09:28:00.921Z,2.00
2022-10-25T09:30:30.800Z,2.45
2022-10-25T09:33:08.103Z,1.77
2022-10-25T09:35:53.593Z,1.77
2022-10-25T09:38:59.117Z,1.50
2022-10-25T09:41:28.747Z,2.80
2022-10-25T09:44:02.200Z,6.10
2022-10-25T09:47:05.324Z,5.85
2022-10-25T09:50:04.060Z,2.78
2022-10-25T09:52:55.182Z,2.10
2022-10-25T09:55:56.305Z,2.03
2022-10-25T09:58:30.522Z,2.17
2022-10-25T10:01:01.428Z,3.92
2022-10-25T10:03:31.048Z,2.72
2022-10-25T10:06:03.453Z,7.53
2022-10-25T10:08:35.560Z,5.28
2022-10-25T10:11:04.997Z,4.03
2022-10-25T10:13:43.052Z,4.03
2022-10-25T10:16:22.237Z,4.90
2022-10-25T10:18:49.054Z,4.03
2022-10-25T10:21:20.428Z,3.38
2022-10-25T10:24:05.676Z,3.00
2022-10-25T10:26:49.198Z,3.20
2022-10-25T10:29:23.522Z,2.47
2022-10-25T10:32:00.901Z,3.17
2022-10-25T10:34:57.880Z,3.75
2022-10-25T10:37:30.448Z,2.17
2022-10-25T10:40:25.390Z,2.65
2022-10-25T10:42:53.739Z,3.03
2022-10-25T10:45:22.681Z,2.47
2022-10-25T10:47:52.382Z,2.58
2022-10-25T10:50:22.200Z,2.33
2022-10-25T10:53:07.698Z,2.50
2022-10-25T10:55:38.350Z,2.25
2022-10-25T10:58:25.822Z,1.60
2022-10-25T11:01:04.453Z,1.80
2022-10-25T11:03:59.102Z,2.08
2022-10-25T11:06:34.659Z,2.60
2022-10-25T11:09:10.818Z,2.72
2022-10-25T11:11:37.750Z,3.25
2022-10-25T11:14:16.610Z,2.72
2022-10-25T11:17:11.370Z,2.38
2022-10-25T11:19:57.197Z,3.40
2022-10-25T11:22:49.308Z,3.00
2022-10-25T11:25:32.733Z,2.60
2022-10-25T11:28:39.233Z,2.00
2022-10-25T11:31:20.907Z,1.63
2022-10-25T11:34:47.946Z,2.33
2022-10-25T11:37:29.068Z,2.38
2022-10-25T11:40:15.774Z,1.20
2022-10-25T11:43:10.227Z,2.03
2022-10-25T11:45:48.572Z,1.50
2022-10-25T11:48:21.255Z,1.52
2022-10-25T11:51:14.043Z,1.58
2022-10-25T11:53:48.965Z,1.70
2022-10-25T11:56:33.351Z,1.50
2022-10-25T11:59:39.377Z,1.70
2022-10-25T12:02:20.150Z,1.50
2022-10-25T12:05:42.626Z,1.80
2022-10-25T12:08:36.568Z,0.90
2022-10-25T12:11:13.735Z,1.30
2022-10-25T12:13:49.454Z,1.77
2022-10-25T12:18:49.109Z,1.02
2022-10-25T12:21:22.674Z,5.97
2022-10-25T12:23:52.258Z,8.60
2022-10-25T12:26:33.458Z,7.13
2022-10-25T12:29:04.545Z,9.88
2022-10-25T12:31:40.882Z,3.47
2022-10-25T12:34:32.237Z,4.13
2022-10-25T12:37:08.700Z,5.53
2022-10-25T12:39:46.589Z,3.67
2022-10-25T12:42:20.049Z,4.18
2022-10-25T12:45:11.845Z,3.53
2022-10-25T12:48:07.430Z,1.15
2022-10-25T12:50:46.519Z,2.15
2022-10-25T12:53:52.609Z,1.55
2022-10-25T12:56:34.355Z,1.45
2022-10-25T12:59:45.829Z,1.10
2022-10-25T13:02:50.445Z,1.60
2022-10-25T13:05:39.522Z,1.73
2022-10-25T13:08:07.286Z,0.77
2022-10-25T13:10:44.352Z,0.98
2022-10-25T13:13:22.789Z,1.52
2022-10-25T13:15:59.159Z,0.73
2022-10-25T13:18:34.611Z,0.68
2022-10-25T13:21:08.290Z,2.05
2022-10-25T13:23:44.196Z,1.95
2022-10-25T13:26:25.799Z,0.60
2022-10-25T13:29:02.478Z,1.55
2022-10-25T13:31:35.003Z,1.40
2022-10-25T13:34:13.802Z,0.60
2022-10-25T13:36:49.766Z,2.22
2022-10-25T13:40:05.189Z,1.80
2022-10-25T13:42:37.818Z,1.25
2022-10-25T13:45:04.424Z,4.53
2022-10-25T13:47:43.880Z,3.25
2022-10-25T13:50:21.734Z,3.60
2022-10-25T13:52:56.806Z,2.65
2022-10-25T13:55:29.448Z,2.10
2022-10-25T13:57:58.944Z,2.35
2022-10-25T14:00:53.667Z,2.35
2022-10-25T14:03:34.646Z,1.60
2022-10-25T14:06:01.446Z,4.07
2022-10-25T14:08:54.936Z,2.83
2022-10-25T14:14:29.128Z,1.38
2022-10-25T14:17:37.123Z,1.73
2022-10-25T14:20:18.703Z,2.30
2022-10-25T14:23:18.973Z,3.15
2022-10-25T14:25:59.717Z,2.47
2022-10-25T14:28:31.617Z,2.20
2022-10-25T14:31:04.781Z,2.92
2022-10-25T14:33:49.628Z,3.05
2022-10-25T14:36:37.959Z,1.33
2022-10-25T14:39:17.555Z,3.38
2022-10-25T14:41:56.229Z,1.98
2022-10-25T14:44:28.655Z,2.92
2022-10-25T14:46:58.249Z,2.00
2022-10-25T14:49:26.330Z,15.10
2022-10-25T14:52:00.512Z,12.27
2022-10-25T14:54:34.296Z,8.75
2022-10-25T14:57:05.041Z,15.95
2022-10-25T14:59:44.971Z,12.07
2022-10-25T15:02:20.060Z,10.50
2022-10-25T15:04:50.527Z,9.20
2022-10-25T15:07:23.201Z,10.88
2022-10-25T15:09:55.366Z,4.10
2022-10-25T15:12:26.035Z,5.43
2022-10-25T15:14:59.296Z,6.68
2022-10-25T15:17:29.538Z,4.38
2022-10-25T15:20:14.053Z,5.38
2022-10-25T15:22:45.502Z,2.55
2022-10-25T15:25:24.448Z,3.33
2022-10-25T15:27:56.542Z,2.78
2022-10-25T15:30:48.105Z,2.72
2022-10-25T15:33:27.994Z,1.55
2022-10-25T15:35:57.150Z,1.08
2022-10-25T15:38:54.334Z,1.60
2022-10-25T15:41:19.702Z,1.67
2022-10-25T15:43:46.449Z,2.22
2022-10-25T15:46:34.143Z,2.90
2022-10-25T15:49:04.345Z,1.60
2022-10-25T15:51:33.509Z,2.10
2022-10-25T15:54:00.218Z,1.70
2022-10-25T15:56:27.054Z,1.30
2022-10-25T15:58:53.830Z,1.10
2022-10-25T16:01:21.622Z,1.38
2022-10-25T16:03:48.521Z,1.13
2022-10-25T16:06:15.313Z,0.82
2022-10-25T16:08:42.620Z,1.85
2022-10-25T16:11:19.391Z,1.67
2022-10-25T16:13:49.210Z,1.20
2022-10-25T16:16:44.841Z,1.20
2022-10-25T16:19:16.985Z,4.55
2022-10-25T16:21:44.481Z,6.68
2022-10-25T16:24:12.314Z,6.35
2022-10-25T16:26:43.697Z,6.22
2022-10-25T16:29:16.319Z,7.13
2022-10-25T16:31:43.825Z,6.85
2022-10-25T16:34:11.122Z,5.97
2022-10-25T16:36:38.229Z,4.93
2022-10-25T16:39:06.450Z,3.92
2022-10-25T16:41:33.549Z,2.78
2022-10-25T16:44:00.561Z,2.42
2022-10-25T16:46:27.463Z,2.22
2022-10-25T16:48:55.947Z,2.20
2022-10-25T16:51:25.893Z,2.10
2022-10-25T16:53:52.609Z,1.55
2022-10-25T16:56:19.445Z,1.60
2022-10-25T16:58:46.342Z,1.08
2022-10-25T17:01:34.435Z,1.10
2022-10-25T17:04:04.244Z,0.80
2022-10-25T17:06:46.241Z,0.80
2022-10-25T17:09:13.114Z,0.80
2022-10-25T17:11:39.848Z,1.20
2022-10-25T17:14:06.877Z,0.93
2022-10-25T17:16:33.805Z,1.08
2022-10-25T17:19:00.576Z,0.70
2022-10-25T17:21:28.429Z,0.82
2022-10-25T17:23:56.655Z,0.80
2022-10-25T17:26:23.472Z,1.30
2022-10-25T17:28:50.355Z,0.88
2022-10-25T17:31:17.264Z,1.33
2022-10-25T17:33:44.002Z,1.48
2022-10-25T17:36:14.890Z,1.00
2022-10-25T17:38:42.314Z,1.42
2022-10-25T17:41:13.088Z,0.70
2022-10-25T17:43:41.619Z,0.88
2022-10-25T17:46:16.677Z,0.88
2022-10-25T17:48:43.441Z,0.95
2022-10-25T17:51:13.207Z,1.25
2022-10-25T17:53:40.269Z,1.92
2022-10-25T17:56:15.446Z,1.70
2022-10-25T17:58:44.271Z,1.00
2022-10-25T18:01:14.604Z,1.08
2022-10-25T18:03:41.467Z,1.58
2022-10-25T18:06:12.426Z,1.33
2022-10-25T18:08:39.801Z,1.33
2022-10-25T18:11:19.433Z,1.30
2022-10-25T18:13:46.285Z,1.25
2022-10-25T18:16:13.085Z,0.70
2022-10-25T18:18:40.007Z,2.20
2022-10-25T18:21:13.297Z,0.95
2022-10-25T18:23:41.553Z,1.15
2022-10-25T18:26:11.027Z,0.70
2022-10-25T18:28:38.521Z,0.98
2022-10-25T18:31:11.668Z,1.80
2022-10-25T18:33:41.325Z,0.75
2022-10-25T18:36:17.950Z,1.00
2022-10-25T18:38:46.389Z,0.90
2022-10-25T18:41:21.978Z,1.08
2022-10-25T18:43:48.734Z,0.98
2022-10-25T18:46:15.942Z,1.25
2022-10-25T18:48:42.725Z,1.35
2022-10-25T18:51:12.226Z,0.57
2022-10-25T18:53:39.683Z,0.75
2022-10-25T18:56:12.241Z,0.80
2022-10-25T18:58:39.885Z,0.85
2022-10-25T19:01:12.799Z,0.47
2022-10-25T19:06:07.768Z,0.52
2022-10-25T19:08:35.773Z,0.45
2022-10-25T19:11:08.545Z,1.02
2022-10-25T19:13:35.907Z,1.13
2022-10-25T19:16:03.201Z,0.93
2022-10-25T19:18:32.094Z,0.88
2022-10-25T19:21:05.392Z,0.90
2022-10-25T19:23:33.321Z,1.05
2022-10-25T19:26:06.934Z,0.70
2022-10-25T19:28:34.801Z,1.10
2022-10-25T19:31:10.928Z,0.90
2022-10-25T19:33:37.798Z,1.35
2022-10-25T19:36:10.047Z,1.13
2022-10-25T19:38:38.250Z,0.77
2022-10-25T19:41:08.343Z,0.98
2022-10-25T19:43:36.255Z,1.38
2022-10-25T19:46:07.078Z,1.50
2022-10-25T19:48:34.874Z,1.38
2022-10-25T19:51:07.270Z,1.10
2022-10-25T19:53:34.128Z,0.80
2022-10-25T19:56:04.361Z,1.33
2022-10-25T19:58:31.101Z,1.17
2022-10-25T20:01:16.293Z,0.82
2022-10-25T20:03:45.813Z,1.50
2022-10-25T20:06:21.710Z,1.45
2022-10-25T20:08:51.260Z,1.20
2022-10-25T20:11:18.975Z,1.00
2022-10-25T20:13:46.240Z,1.25
2022-10-25T20:16:14.217Z,1.48
2022-10-25T20:18:42.545Z,2.08
2022-10-25T20:21:13.599Z,1.30
2022-10-25T20:23:41.825Z,1.27
2022-10-25T20:26:15.461Z,1.30
2022-10-25T20:28:43.267Z,1.20
2022-10-25T20:31:11.047Z,1.38
2022-10-25T20:33:38.770Z,1.17
2022-10-25T20:36:07.841Z,1.25
2022-10-25T20:38:36.107Z,1.40
2022-10-25T20:41:12.063Z,1.73
2022-10-25T20:43:39.692Z,1.17
2022-10-25T20:46:08.306Z,2.00
2022-10-25T20:48:35.715Z,1.40
2022-10-25T20:51:06.831Z,1.13
2022-10-25T20:53:35.857Z,1.95
2022-10-25T20:56:02.579Z,1.38
2022-10-25T20:58:29.318Z,1.67
2022-10-25T21:00:57.717Z,1.38
2022-10-25T21:03:26.842Z,1.67
2022-10-25T21:06:06.039Z,1.98
2022-10-25T21:08:33.963Z,1.70
2022-10-25T21:11:03.540Z,1.20
2022-10-25T21:13:32.782Z,1.35
2022-10-25T21:16:05.417Z,1.80
2022-10-25T21:18:32.117Z,1.60
2022-10-25T21:21:05.597Z,2.40
2022-10-25T21:23:32.418Z,2.08
2022-10-25T21:26:05.574Z,2.17
2022-10-25T21:28:36.724Z,1.70
2022-10-25T21:31:10.432Z,1.73
2022-10-25T21:33:37.651Z,2.90
2022-10-25T21:36:10.154Z,1.88
2022-10-25T21:38:37.101Z,2.05
2022-10-25T21:41:12.740Z,2.00
2022-10-25T21:43:50.677Z,2.10
2022-10-25T21:46:20.575Z,1.65
2022-10-25T21:48:50.610Z,2.65
2022-10-25T21:51:24.328Z,2.10
2022-10-25T21:56:37.689Z,2.15
2022-10-25T21:59:04.450Z,1.63
2022-10-25T22:01:31.829Z,2.15
2022-10-25T22:03:58.890Z,2.22
2022-10-25T22:06:27.439Z,1.95
2022-10-25T22:08:55.779Z,1.92
2022-10-25T22:11:26.502Z,1.40
2022-10-25T22:14:04.891Z,2.38
2022-10-25T22:16:33.150Z,2.22
2022-10-25T22:19:03.929Z,1.67
2022-10-25T22:21:38.007Z,2.13
2022-10-25T22:24:08.554Z,2.20
2022-10-25T22:26:37.952Z,2.20
2022-10-25T22:29:05.350Z,2.00
2022-10-25T22:31:32.172Z,1.95
2022-10-25T22:34:02.139Z,2.42
2022-10-25T22:36:32.425Z,2.15
2022-10-25T22:38:59.578Z,2.22
2022-10-25T22:41:28.529Z,2.00
2022-10-25T22:43:55.672Z,2.10
2022-10-25T22:46:34.696Z,1.80
2022-10-25T22:49:08.963Z,1.50
2022-10-25T22:51:37.536Z,1.92
2022-10-25T22:54:04.882Z,2.10
2022-10-25T22:56:32.032Z,1.98
2022-10-25T22:59:02.016Z,1.80
2022-10-25T23:01:40.421Z,1.83
2022-10-25T23:04:09.583Z,1.90
2022-10-25T23:06:40.658Z,2.33
2022-10-25T23:09:10.100Z,2.08
2022-10-25T23:11:39.597Z,1.83
2022-10-25T23:14:07.530Z,1.83
2022-10-25T23:16:34.610Z,1.52
2022-10-25T23:19:01.413Z,1.58
2022-10-25T23:21:30.318Z,1.55
2022-10-25T23:23:59.074Z,2.03
2022-10-25T23:26:33.168Z,1.48
2022-10-25T23:29:01.073Z,2.63
2022-10-25T23:31:29.375Z,2.10
2022-10-25T23:33:58.758Z,1.60
2022-10-25T23:36:28.699Z,1.55
2022-10-25T23:38:56.700Z,1.92
2022-10-25T23:41:23.875Z,1.83
2022-10-25T23:43:51.003Z,1.85
2022-10-25T23:46:17.760Z,2.35
2022-10-25T23:48:44.509Z,1.58
2022-10-25T23:51:16.018Z,1.92
2022-10-25T23:53:43.518Z,1.67
2022-10-25T23:56:12.626Z,1.67
2022-10-25T23:58:39.710Z,1.80
